Pacific Hope — 3FLH6 — position and weather

sailwx.info

Track history (hours):
 
Tides and Currents Weather Stations Pressure Air Temp Water Temp Dewpoint Dewpoint Depression Visibility Wind Speed Wind Dir Waves Ship Positions

Pacific Hope

Last reported at 2017-May-27 23:29 UTC. Time now 2017-May-28 18:35 UTC.
Position N 34°43' E 134°50'.

Length 169 m; draft 5.3 m.

Type: Cargo ship. MMSI: 351849000.

Date/timePositionNaut miles runAvg speedWind from/ knotsBaromVisibWave heightAir tempDewpointWater temp
2017-May-27 23:29N 34°43' E 134°50'0 0.0
2017-May-27 21:17N 34°43' E 134°50'0 0.0
2017-May-27 19:53N 34°43' E 134°50'1 0.1
2017-May-27 03:17N 34°42' E 134°50'3 1.1
2017-May-27 00:32N 34°40' E 134°47'0 0.0
2017-May-27 00:25N 34°40' E 134°47'0 0.0
2017-May-26 23:57N 34°40' E 134°47'0 0.0
2017-May-26 23:29N 34°40' E 134°47'0 0.2
2017-May-26 22:57N 34°40' E 134°47'0 0.1
2017-May-26 22:27N 34°40' E 134°47'0 0.0
2017-May-26 15:55N 34°40' E 134°47'0 0.0
2017-May-26 15:30N 34°40' E 134°47'0 0.1
2017-May-26 14:16N 34°40' E 134°47'0 0.1
2017-May-26 13:08N 34°40' E 134°47'0 0.0
2017-May-26 10:31N 34°40' E 134°47'0 0.1
2017-May-26 10:24N 34°40' E 134°47'0 0.1
2017-May-26 09:48N 34°40' E 134°47'0 0.0
2017-May-26 09:16N 34°40' E 134°47'0 0.5
2017-May-26 08:52N 34°40' E 134°47'0 0.0
2017-May-26 02:26N 34°40' E 134°47'0 0.1
2017-May-26 00:45N 34°40' E 134°47'0 0.1
2017-May-25 23:43N 34°40' E 134°47'0 0.0
2017-May-25 23:28N 34°40' E 134°47'0 0.1
2017-May-25 23:00N 34°40' E 134°47'0 0.0
2017-May-25 22:30N 34°40' E 134°47'0 0.2
2017-May-25 22:00N 34°40' E 134°47'0 0.2
2017-May-25 21:29N 34°40' E 134°47'0 0.0
2017-May-25 14:29N 34°40' E 134°47'0 0.1
2017-May-25 13:20N 34°40' E 134°47'0 0.2
2017-May-25 13:00N 34°40' E 134°47'0 0.1
2017-May-25 12:20N 34°40' E 134°47'0 0.0
2017-May-25 11:52N 34°40' E 134°47'0 0.1
2017-May-25 11:17N 34°40' E 134°47'0 0.0
2017-May-25 10:59N 34°40' E 134°47'0 0.0
2017-May-25 10:15N 34°40' E 134°47'0 0.0
2017-May-25 09:57N 34°40' E 134°47'0 0.0
2017-May-25 09:19N 34°40' E 134°47'0 0.0
2017-May-25 08:23N 34°40' E 134°47'0 0.3
2017-May-25 07:58N 34°40' E 134°47'7 1.9
2017-May-25 04:05N 34°37' E 134°55'112.8
2017-May-25 04:00N 34°37' E 134°56'5 9.7
2017-May-25 03:30N 34°37' E 135°02'5 9.8
2017-May-25 03:00N 34°34' E 135°07'5 9.3
2017-May-25 02:30N 34°29' E 135°06'712.9
2017-May-25 02:00N 34°23' E 135°02'612.8
2017-May-25 01:30N 34°18' E 134°59'612.8
2017-May-25 01:01N 34°11' E 134°60'5 9.7
2017-May-25 00:30N 34°06' E 135°00'4 8.9
2017-May-25 00:00N 34°02' E 134°60'611.7
2017-May-24 23:30N 33°56' E 134°60'  
2017-May-22 11:24N 33°57' E 134°55'512.0
2017-May-22 11:00N 34°02' E 134°56'510.6
2017-May-22 10:30N 34°07' E 134°57'510.7
2017-May-22 10:00N 34°12' E 134°57'510.2
2017-May-22 09:29N 34°17' E 134°58'611.7
2017-May-22 09:00N 34°23' E 135°01'611.8
2017-May-22 08:30N 34°27' E 135°05'612.6
2017-May-22 08:00N 34°32' E 135°11'612.5
2017-May-22 07:30N 34°36' E 135°16'510.2
2017-May-22 07:00N 34°41' E 135°18'1 2.4
2017-May-22 06:27N 34°42' E 135°18'0 0.0
2017-May-22 05:45N 34°42' E 135°18'0 0.0
2017-May-22 05:21N 34°42' E 135°18'0 0.0
2017-May-22 04:57N 34°42' E 135°18'0 0.0
2017-May-22 04:27N 34°42' E 135°18'0 0.0
2017-May-22 03:57N 34°42' E 135°18'0 0.0
2017-May-22 03:27N 34°42' E 135°18'0 0.0
2017-May-22 02:33N 34°42' E 135°18'0 0.0
2017-May-22 02:27N 34°42' E 135°18'0 0.0
2017-May-22 01:45N 34°42' E 135°18'0 0.0
2017-May-22 01:09N 34°42' E 135°18'0 0.0
2017-May-22 00:57N 34°42' E 135°18'0 0.0
2017-May-22 00:27N 34°42' E 135°18'0 0.0
2017-May-21 23:57N 34°42' E 135°18'0 0.0
2017-May-21 23:27N 34°42' E 135°18'0 0.0
2017-May-21 22:57N 34°42' E 135°18'0 0.0
2017-May-21 22:27N 34°42' E 135°18'0 0.0
2017-May-21 21:51N 34°42' E 135°18'0 0.0
2017-May-21 21:27N 34°42' E 135°18'0 0.0
2017-May-21 20:57N 34°42' E 135°18'0 0.0
2017-May-21 20:27N 34°42' E 135°18'0 0.0
2017-May-21 19:57N 34°42' E 135°18'0 0.0
2017-May-21 19:15N 34°42' E 135°18'0 0.0
2017-May-21 18:51N 34°42' E 135°18'0 0.0
2017-May-21 18:27N 34°42' E 135°18'0 0.0
2017-May-21 17:57N 34°42' E 135°18'0 0.0
2017-May-21 17:21N 34°42' E 135°18'0 0.0
2017-May-21 16:57N 34°42' E 135°18'0 0.0
2017-May-21 16:27N 34°42' E 135°18'0 0.0
2017-May-21 15:57N 34°42' E 135°18'0 0.0
2017-May-21 15:27N 34°42' E 135°18'0 0.0
2017-May-21 14:57N 34°42' E 135°18'0 0.0
2017-May-21 13:51N 34°42' E 135°18'0 0.0
2017-May-21 13:21N 34°42' E 135°18'0 0.0
2017-May-21 12:39N 34°42' E 135°18'0 0.0
2017-May-21 12:27N 34°42' E 135°18'0 0.0
2017-May-21 11:57N 34°42' E 135°18'0 0.0
2017-May-21 11:21N 34°42' E 135°18'0 0.0
2017-May-21 10:57N 34°42' E 135°18'0 0.0
2017-May-21 10:09N 34°42' E 135°18'0 0.0
2017-May-21 09:51N 34°42' E 135°18'0 0.0
2017-May-21 09:21N 34°42' E 135°18'0 0.0
2017-May-21 08:57N 34°42' E 135°18'0 0.0
2017-May-21 08:27N 34°42' E 135°18'0 0.0
2017-May-21 07:45N 34°42' E 135°18'0 0.0
2017-May-21 07:21N 34°42' E 135°18'0 0.0
2017-May-21 06:51N 34°42' E 135°18'0 0.0
2017-May-21 06:27N 34°42' E 135°18'0 0.0
2017-May-21 05:57N 34°42' E 135°18'0 0.0
2017-May-21 05:21N 34°42' E 135°18'0 0.0
2017-May-21 04:57N 34°42' E 135°18'0 0.0
2017-May-21 04:27N 34°42' E 135°18'0 0.0
2017-May-21 03:45N 34°42' E 135°18'0 0.0
2017-May-21 03:27N 34°42' E 135°18'0 0.0
2017-May-21 02:57N 34°42' E 135°18'0 0.0
2017-May-21 02:21N 34°42' E 135°18'0 0.0
2017-May-21 01:45N 34°42' E 135°18'0 0.0
2017-May-21 01:21N 34°42' E 135°18'0 0.0
2017-May-21 00:57N 34°42' E 135°18'0 0.0
2017-May-21 00:27N 34°42' E 135°18'0 0.0
2017-May-20 23:51N 34°42' E 135°18'0 0.0
2017-May-20 23:27N 34°42' E 135°18'0 0.0
2017-May-20 22:57N 34°42' E 135°18'0 0.0
2017-May-20 22:27N 34°42' E 135°18'0 0.0
2017-May-20 21:51N 34°42' E 135°18'0 0.0
2017-May-20 21:27N 34°42' E 135°18'0 0.0
2017-May-20 20:39N 34°42' E 135°18'0 0.0
2017-May-20 20:27N 34°42' E 135°18'0 0.0
2017-May-20 19:57N 34°42' E 135°18'0 0.0
2017-May-20 19:27N 34°42' E 135°18'0 0.0
2017-May-20 18:57N 34°42' E 135°18'0 0.0
2017-May-20 18:27N 34°42' E 135°18'0 0.0
2017-May-20 17:57N 34°42' E 135°18'0 0.0
2017-May-20 17:27N 34°42' E 135°18'0 0.0
2017-May-20 16:57N 34°42' E 135°18'0 0.0
2017-May-20 16:27N 34°42' E 135°18'0 0.0
2017-May-20 15:57N 34°42' E 135°18'0 0.0
2017-May-20 15:21N 34°42' E 135°18'0 0.0
2017-May-20 14:51N 34°42' E 135°18'0 0.0
2017-May-20 13:57N 34°42' E 135°18'0 0.0
2017-May-20 13:27N 34°42' E 135°18'0 0.0
2017-May-20 12:57N 34°42' E 135°18'0 0.0
2017-May-20 12:27N 34°42' E 135°18'0 0.0
2017-May-20 11:51N 34°42' E 135°18'0 0.0
2017-May-20 11:21N 34°42' E 135°18'0 0.0
2017-May-20 10:57N 34°42' E 135°18'0 0.0
2017-May-20 10:21N 34°42' E 135°18'0 0.0
2017-May-20 09:57N 34°42' E 135°18'0 0.0
2017-May-20 09:27N 34°42' E 135°18'0 0.0
2017-May-20 08:57N 34°42' E 135°18'0 0.0
2017-May-20 08:15N 34°42' E 135°18'0 0.0
2017-May-20 07:57N 34°42' E 135°18'0 0.0
2017-May-20 07:27N 34°42' E 135°18'0 0.0
2017-May-20 06:51N 34°42' E 135°18'0 0.0
2017-May-20 06:27N 34°42' E 135°18'0 0.0
2017-May-20 05:45N 34°42' E 135°18'0 0.0
2017-May-20 05:27N 34°42' E 135°18'0 0.0
2017-May-20 04:57N 34°42' E 135°18'0 0.0
2017-May-20 04:27N 34°42' E 135°18'0 0.0
2017-May-20 03:51N 34°42' E 135°18'0 0.0
2017-May-20 03:27N 34°42' E 135°18'0 0.0
2017-May-20 02:51N 34°42' E 135°18'0 0.0
2017-May-20 02:27N 34°42' E 135°18'0 0.0
2017-May-20 01:57N 34°42' E 135°18'0 0.0
2017-May-20 01:27N 34°42' E 135°18'0 0.0
2017-May-20 00:57N 34°42' E 135°18'0 0.0
2017-May-20 00:27N 34°42' E 135°18'0 0.0
2017-May-19 23:57N 34°42' E 135°18'0 0.0
2017-May-19 23:27N 34°42' E 135°18'0 0.0
2017-May-19 22:57N 34°42' E 135°18'0 0.0
2017-May-19 22:27N 34°42' E 135°18'0 0.0
2017-May-19 21:51N 34°42' E 135°18'0 0.0
2017-May-19 21:27N 34°42' E 135°18'0 0.0
2017-May-19 20:57N 34°42' E 135°18'0 0.0
2017-May-19 20:21N 34°42' E 135°18'0 0.0
2017-May-19 19:51N 34°42' E 135°18'0 0.0
2017-May-19 19:27N 34°42' E 135°18'0 0.0
2017-May-19 18:57N 34°42' E 135°18'0 0.0
2017-May-19 18:27N 34°42' E 135°18'0 0.0
2017-May-19 17:57N 34°42' E 135°18'0 0.0
2017-May-19 17:27N 34°42' E 135°18'0 0.0
2017-May-19 16:54N 34°42' E 135°18'0 0.0
2017-May-19 16:30N 34°42' E 135°18'0 0.0
2017-May-19 16:00N 34°42' E 135°18'0 0.0
2017-May-19 15:30N 34°42' E 135°18'0 0.0
2017-May-19 15:00N 34°42' E 135°18'0 0.0
2017-May-19 14:00N 34°42' E 135°18'0 0.0
2017-May-19 13:30N 34°42' E 135°18'0 0.0
2017-May-19 12:48N 34°42' E 135°18'0 0.0
2017-May-19 12:30N 34°42' E 135°18'0 0.0
2017-May-19 12:00N 34°42' E 135°18'0 0.0
2017-May-19 11:30N 34°42' E 135°18'0 0.0
2017-May-19 10:54N 34°42' E 135°18'0 0.0
2017-May-19 10:30N 34°42' E 135°18'0 0.0
2017-May-19 10:00N 34°42' E 135°18'0 0.0
2017-May-19 09:30N 34°42' E 135°18'0 0.0
2017-May-19 08:48N 34°42' E 135°18'0 0.0
2017-May-19 08:30N 34°42' E 135°18'0 0.0
2017-May-19 07:54N 34°42' E 135°18'0 0.0
2017-May-19 07:30N 34°42' E 135°18'0 0.0
2017-May-19 07:00N 34°42' E 135°18'0 0.0
2017-May-19 06:30N 34°42' E 135°18'0 0.0
2017-May-19 06:00N 34°42' E 135°18'0 0.0
2017-May-19 05:30N 34°42' E 135°18'0 0.0
2017-May-19 05:00N 34°42' E 135°18'0 0.0
2017-May-19 04:18N 34°42' E 135°18'0 0.0
2017-May-19 03:48N 34°42' E 135°18'0 0.0
2017-May-19 03:12N 34°42' E 135°18'0 0.0
2017-May-19 03:00N 34°42' E 135°18'0 0.0
2017-May-19 02:30N 34°42' E 135°18'0 0.0
2017-May-19 02:00N 34°42' E 135°18'0 0.0
2017-May-19 01:30N 34°42' E 135°18'0 0.0
2017-May-19 01:00N 34°42' E 135°18'0 0.0
2017-May-19 00:18N 34°42' E 135°18'0 0.0
2017-May-19 00:00N 34°42' E 135°18'0 0.0
2017-May-18 23:30N 34°42' E 135°18'0 0.0
2017-May-18 23:00N 34°42' E 135°18'1 1.3
2017-May-18 22:30N 34°42' E 135°18'4 7.2
2017-May-18 22:00N 34°38' E 135°18'3 3.7
2017-May-18 21:19N 34°37' E 135°15'0 0.3
2017-May-18 20:55N 34°37' E 135°15'0 0.0
2017-May-18 20:19N 34°37' E 135°15'0 0.0
2017-May-18 19:55N 34°37' E 135°15'0 0.0
2017-May-18 19:25N 34°37' E 135°15'0 0.0
2017-May-18 18:55N 34°37' E 135°15'0 0.0
2017-May-18 18:25N 34°37' E 135°15'0 0.0
2017-May-18 17:55N 34°37' E 135°15'0 0.0
2017-May-18 17:25N 34°37' E 135°15'0 0.0
2017-May-18 16:55N 34°37' E 135°15'0 0.0
2017-May-18 16:25N 34°37' E 135°15'0 0.0
2017-May-18 15:49N 34°37' E 135°15'0 0.1
2017-May-18 15:19N 34°37' E 135°15'0 0.0
2017-May-18 14:55N 34°37' E 135°15'0 0.1
2017-May-18 13:55N 34°37' E 135°15'0 0.0
2017-May-18 13:25N 34°37' E 135°15'0 0.1
2017-May-18 12:55N 34°37' E 135°15'0 0.1
2017-May-18 12:25N 34°37' E 135°15'0 0.0
2017-May-18 11:55N 34°37' E 135°15'0 0.0
2017-May-18 11:19N 34°37' E 135°15'0 0.0
2017-May-18 10:55N 34°37' E 135°15'0 0.0
2017-May-18 10:25N 34°37' E 135°15'0 0.0
2017-May-18 09:58N 34°37' E 135°15'0 0.0
2017-May-18 09:25N 34°37' E 135°15'0 0.0
2017-May-18 08:55N 34°37' E 135°15'0 0.0
2017-May-18 08:25N 34°37' E 135°15'0 0.0
2017-May-18 07:55N 34°37' E 135°15'0 0.0
2017-May-18 07:19N 34°37' E 135°15'0 0.0
2017-May-18 06:49N 34°37' E 135°15'0 0.0
2017-May-18 06:28N 34°37' E 135°15'0 0.0
2017-May-18 05:58N 34°37' E 135°15'0 0.0
2017-May-18 05:28N 34°37' E 135°15'0 0.0
2017-May-18 04:55N 34°37' E 135°15'0 0.0
2017-May-18 04:25N 34°37' E 135°15'0 0.0
2017-May-18 03:55N 34°37' E 135°15'0 0.1
2017-May-18 03:25N 34°37' E 135°15'0 0.0
2017-May-18 02:55N 34°37' E 135°15'0 0.0
2017-May-18 02:25N 34°37' E 135°15'0 0.0
2017-May-18 02:00N 34°37' E 135°15'0 0.0
2017-May-18 01:30N 34°37' E 135°15'0 0.0
2017-May-18 01:00N 34°37' E 135°15'0 0.0
2017-May-18 00:30N 34°37' E 135°15'0 0.2
2017-May-18 00:00N 34°37' E 135°15'0 0.1
2017-May-17 23:30N 34°37' E 135°15'  
Track history (hours):
 
Tides and Currents Weather Stations Pressure Air Temp Water Temp Dewpoint Dewpoint Depression Visibility Wind Speed Wind Dir Waves Ship Positions

Pacific Hope

Last reported at 2017-May-27 23:29 UTC. Time now 2017-May-28 18:35 UTC.
Position N 34°43' E 134°50'.

Length 169 m; draft 5.3 m.

Type: Cargo ship. MMSI: 351849000.

Date/timePositionNaut miles runAvg speedWind from/ knotsBaromVisibWave heightAir tempDewpointWater temp
2017-May-27 23:29N 34°43' E 134°50'0 0.0
2017-May-27 21:17N 34°43' E 134°50'0 0.0
2017-May-27 19:53N 34°43' E 134°50'1 0.1
2017-May-27 03:17N 34°42' E 134°50'3 1.1
2017-May-27 00:32N 34°40' E 134°47'0 0.0
2017-May-27 00:25N 34°40' E 134°47'0 0.0
2017-May-26 23:57N 34°40' E 134°47'0 0.0
2017-May-26 23:29N 34°40' E 134°47'0 0.2
2017-May-26 22:57N 34°40' E 134°47'0 0.1
2017-May-26 22:27N 34°40' E 134°47'0 0.0
2017-May-26 15:55N 34°40' E 134°47'0 0.0
2017-May-26 15:30N 34°40' E 134°47'0 0.1
2017-May-26 14:16N 34°40' E 134°47'0 0.1
2017-May-26 13:08N 34°40' E 134°47'0 0.0
2017-May-26 10:31N 34°40' E 134°47'0 0.1
2017-May-26 10:24N 34°40' E 134°47'0 0.1
2017-May-26 09:48N 34°40' E 134°47'0 0.0
2017-May-26 09:16N 34°40' E 134°47'0 0.5
2017-May-26 08:52N 34°40' E 134°47'0 0.0
2017-May-26 02:26N 34°40' E 134°47'0 0.1
2017-May-26 00:45N 34°40' E 134°47'0 0.1
2017-May-25 23:43N 34°40' E 134°47'0 0.0
2017-May-25 23:28N 34°40' E 134°47'0 0.1
2017-May-25 23:00N 34°40' E 134°47'0 0.0
2017-May-25 22:30N 34°40' E 134°47'0 0.2
2017-May-25 22:00N 34°40' E 134°47'0 0.2
2017-May-25 21:29N 34°40' E 134°47'0 0.0
2017-May-25 14:29N 34°40' E 134°47'0 0.1
2017-May-25 13:20N 34°40' E 134°47'0 0.2
2017-May-25 13:00N 34°40' E 134°47'0 0.1
2017-May-25 12:20N 34°40' E 134°47'0 0.0
2017-May-25 11:52N 34°40' E 134°47'0 0.1
2017-May-25 11:17N 34°40' E 134°47'0 0.0
2017-May-25 10:59N 34°40' E 134°47'0 0.0
2017-May-25 10:15N 34°40' E 134°47'0 0.0
2017-May-25 09:57N 34°40' E 134°47'0 0.0
2017-May-25 09:19N 34°40' E 134°47'0 0.0
2017-May-25 08:23N 34°40' E 134°47'0 0.3
2017-May-25 07:58N 34°40' E 134°47'7 1.9
2017-May-25 04:05N 34°37' E 134°55'112.8
2017-May-25 04:00N 34°37' E 134°56'5 9.7
2017-May-25 03:30N 34°37' E 135°02'5 9.8
2017-May-25 03:00N 34°34' E 135°07'5 9.3
2017-May-25 02:30N 34°29' E 135°06'712.9
2017-May-25 02:00N 34°23' E 135°02'612.8
2017-May-25 01:30N 34°18' E 134°59'612.8
2017-May-25 01:01N 34°11' E 134°60'5 9.7
2017-May-25 00:30N 34°06' E 135°00'4 8.9
2017-May-25 00:00N 34°02' E 134°60'611.7
2017-May-24 23:30N 33°56' E 134°60'  
2017-May-22 11:24N 33°57' E 134°55'512.0
2017-May-22 11:00N 34°02' E 134°56'510.6
2017-May-22 10:30N 34°07' E 134°57'510.7
2017-May-22 10:00N 34°12' E 134°57'510.2
2017-May-22 09:29N 34°17' E 134°58'611.7
2017-May-22 09:00N 34°23' E 135°01'611.8
2017-May-22 08:30N 34°27' E 135°05'612.6
2017-May-22 08:00N 34°32' E 135°11'612.5
2017-May-22 07:30N 34°36' E 135°16'510.2
2017-May-22 07:00N 34°41' E 135°18'1 2.4
2017-May-22 06:27N 34°42' E 135°18'0 0.0
2017-May-22 05:45N 34°42' E 135°18'0 0.0
2017-May-22 05:21N 34°42' E 135°18'0 0.0
2017-May-22 04:57N 34°42' E 135°18'0 0.0
2017-May-22 04:27N 34°42' E 135°18'0 0.0
2017-May-22 03:57N 34°42' E 135°18'0 0.0
2017-May-22 03:27N 34°42' E 135°18'0 0.0
2017-May-22 02:33N 34°42' E 135°18'0 0.0
2017-May-22 02:27N 34°42' E 135°18'0 0.0
2017-May-22 01:45N 34°42' E 135°18'0 0.0
2017-May-22 01:09N 34°42' E 135°18'0 0.0
2017-May-22 00:57N 34°42' E 135°18'0 0.0
2017-May-22 00:27N 34°42' E 135°18'0 0.0
2017-May-21 23:57N 34°42' E 135°18'0 0.0
2017-May-21 23:27N 34°42' E 135°18'0 0.0
2017-May-21 22:57N 34°42' E 135°18'0 0.0
2017-May-21 22:27N 34°42' E 135°18'0 0.0
2017-May-21 21:51N 34°42' E 135°18'0 0.0
2017-May-21 21:27N 34°42' E 135°18'0 0.0
2017-May-21 20:57N 34°42' E 135°18'0 0.0
2017-May-21 20:27N 34°42' E 135°18'0 0.0
2017-May-21 19:57N 34°42' E 135°18'0 0.0
2017-May-21 19:15N 34°42' E 135°18'0 0.0
2017-May-21 18:51N 34°42' E 135°18'0 0.0
2017-May-21 18:27N 34°42' E 135°18'0 0.0
2017-May-21 17:57N 34°42' E 135°18'0 0.0
2017-May-21 17:21N 34°42' E 135°18'0 0.0
2017-May-21 16:57N 34°42' E 135°18'0 0.0
2017-May-21 16:27N 34°42' E 135°18'0 0.0
2017-May-21 15:57N 34°42' E 135°18'0 0.0
2017-May-21 15:27N 34°42' E 135°18'0 0.0
2017-May-21 14:57N 34°42' E 135°18'0 0.0
2017-May-21 13:51N 34°42' E 135°18'0 0.0
2017-May-21 13:21N 34°42' E 135°18'0 0.0
2017-May-21 12:39N 34°42' E 135°18'0 0.0
2017-May-21 12:27N 34°42' E 135°18'0 0.0
2017-May-21 11:57N 34°42' E 135°18'0 0.0
2017-May-21 11:21N 34°42' E 135°18'0 0.0
2017-May-21 10:57N 34°42' E 135°18'0 0.0
2017-May-21 10:09N 34°42' E 135°18'0 0.0
2017-May-21 09:51N 34°42' E 135°18'0 0.0
2017-May-21 09:21N 34°42' E 135°18'0 0.0
2017-May-21 08:57N 34°42' E 135°18'0 0.0
2017-May-21 08:27N 34°42' E 135°18'0 0.0
2017-May-21 07:45N 34°42' E 135°18'0 0.0
2017-May-21 07:21N 34°42' E 135°18'0 0.0
2017-May-21 06:51N 34°42' E 135°18'0 0.0
2017-May-21 06:27N 34°42' E 135°18'0 0.0
2017-May-21 05:57N 34°42' E 135°18'0 0.0
2017-May-21 05:21N 34°42' E 135°18'0 0.0
2017-May-21 04:57N 34°42' E 135°18'0 0.0
2017-May-21 04:27N 34°42' E 135°18'0 0.0
2017-May-21 03:45N 34°42' E 135°18'0 0.0
2017-May-21 03:27N 34°42' E 135°18'0 0.0
2017-May-21 02:57N 34°42' E 135°18'0 0.0
2017-May-21 02:21N 34°42' E 135°18'0 0.0
2017-May-21 01:45N 34°42' E 135°18'0 0.0
2017-May-21 01:21N 34°42' E 135°18'0 0.0
2017-May-21 00:57N 34°42' E 135°18'0 0.0
2017-May-21 00:27N 34°42' E 135°18'0 0.0
2017-May-20 23:51N 34°42' E 135°18'0 0.0
2017-May-20 23:27N 34°42' E 135°18'0 0.0
2017-May-20 22:57N 34°42' E 135°18'0 0.0
2017-May-20 22:27N 34°42' E 135°18'0 0.0
2017-May-20 21:51N 34°42' E 135°18'0 0.0
2017-May-20 21:27N 34°42' E 135°18'0 0.0
2017-May-20 20:39N 34°42' E 135°18'0 0.0
2017-May-20 20:27N 34°42' E 135°18'0 0.0
2017-May-20 19:57N 34°42' E 135°18'0 0.0
2017-May-20 19:27N 34°42' E 135°18'0 0.0
2017-May-20 18:57N 34°42' E 135°18'0 0.0
2017-May-20 18:27N 34°42' E 135°18'0 0.0
2017-May-20 17:57N 34°42' E 135°18'0 0.0
2017-May-20 17:27N 34°42' E 135°18'0 0.0
2017-May-20 16:57N 34°42' E 135°18'0 0.0
2017-May-20 16:27N 34°42' E 135°18'0 0.0
2017-May-20 15:57N 34°42' E 135°18'0 0.0
2017-May-20 15:21N 34°42' E 135°18'0 0.0
2017-May-20 14:51N 34°42' E 135°18'0 0.0
2017-May-20 13:57N 34°42' E 135°18'0 0.0
2017-May-20 13:27N 34°42' E 135°18'0 0.0
2017-May-20 12:57N 34°42' E 135°18'0 0.0
2017-May-20 12:27N 34°42' E 135°18'0 0.0
2017-May-20 11:51N 34°42' E 135°18'0 0.0
2017-May-20 11:21N 34°42' E 135°18'0 0.0
2017-May-20 10:57N 34°42' E 135°18'0 0.0
2017-May-20 10:21N 34°42' E 135°18'0 0.0
2017-May-20 09:57N 34°42' E 135°18'0 0.0
2017-May-20 09:27N 34°42' E 135°18'0 0.0
2017-May-20 08:57N 34°42' E 135°18'0 0.0
2017-May-20 08:15N 34°42' E 135°18'0 0.0
2017-May-20 07:57N 34°42' E 135°18'0 0.0
2017-May-20 07:27N 34°42' E 135°18'0 0.0
2017-May-20 06:51N 34°42' E 135°18'0 0.0
2017-May-20 06:27N 34°42' E 135°18'0 0.0
2017-May-20 05:45N 34°42' E 135°18'0 0.0
2017-May-20 05:27N 34°42' E 135°18'0 0.0
2017-May-20 04:57N 34°42' E 135°18'0 0.0
2017-May-20 04:27N 34°42' E 135°18'0 0.0
2017-May-20 03:51N 34°42' E 135°18'0 0.0
2017-May-20 03:27N 34°42' E 135°18'0 0.0
2017-May-20 02:51N 34°42' E 135°18'0 0.0
2017-May-20 02:27N 34°42' E 135°18'0 0.0
2017-May-20 01:57N 34°42' E 135°18'0 0.0
2017-May-20 01:27N 34°42' E 135°18'0 0.0
2017-May-20 00:57N 34°42' E 135°18'0 0.0
2017-May-20 00:27N 34°42' E 135°18'0 0.0
2017-May-19 23:57N 34°42' E 135°18'0 0.0
2017-May-19 23:27N 34°42' E 135°18'0 0.0
2017-May-19 22:57N 34°42' E 135°18'0 0.0
2017-May-19 22:27N 34°42' E 135°18'0 0.0
2017-May-19 21:51N 34°42' E 135°18'0 0.0
2017-May-19 21:27N 34°42' E 135°18'0 0.0
2017-May-19 20:57N 34°42' E 135°18'0 0.0
2017-May-19 20:21N 34°42' E 135°18'0 0.0
2017-May-19 19:51N 34°42' E 135°18'0 0.0
2017-May-19 19:27N 34°42' E 135°18'0 0.0
2017-May-19 18:57N 34°42' E 135°18'0 0.0
2017-May-19 18:27N 34°42' E 135°18'0 0.0
2017-May-19 17:57N 34°42' E 135°18'0 0.0
2017-May-19 17:27N 34°42' E 135°18'0 0.0
2017-May-19 16:54N 34°42' E 135°18'0 0.0
2017-May-19 16:30N 34°42' E 135°18'0 0.0
2017-May-19 16:00N 34°42' E 135°18'0 0.0
2017-May-19 15:30N 34°42' E 135°18'0 0.0
2017-May-19 15:00N 34°42' E 135°18'0 0.0
2017-May-19 14:00N 34°42' E 135°18'0 0.0
2017-May-19 13:30N 34°42' E 135°18'0 0.0
2017-May-19 12:48N 34°42' E 135°18'0 0.0
2017-May-19 12:30N 34°42' E 135°18'0 0.0
2017-May-19 12:00N 34°42' E 135°18'0 0.0
2017-May-19 11:30N 34°42' E 135°18'0 0.0
2017-May-19 10:54N 34°42' E 135°18'0 0.0
2017-May-19 10:30N 34°42' E 135°18'0 0.0
2017-May-19 10:00N 34°42' E 135°18'0 0.0
2017-May-19 09:30N 34°42' E 135°18'0 0.0
2017-May-19 08:48N 34°42' E 135°18'0 0.0
2017-May-19 08:30N 34°42' E 135°18'0 0.0
2017-May-19 07:54N 34°42' E 135°18'0 0.0
2017-May-19 07:30N 34°42' E 135°18'0 0.0
2017-May-19 07:00N 34°42' E 135°18'0 0.0
2017-May-19 06:30N 34°42' E 135°18'0 0.0
2017-May-19 06:00N 34°42' E 135°18'0 0.0
2017-May-19 05:30N 34°42' E 135°18'0 0.0
2017-May-19 05:00N 34°42' E 135°18'0 0.0
2017-May-19 04:18N 34°42' E 135°18'0 0.0
2017-May-19 03:48N 34°42' E 135°18'0 0.0
2017-May-19 03:12N 34°42' E 135°18'0 0.0
2017-May-19 03:00N 34°42' E 135°18'0 0.0
2017-May-19 02:30N 34°42' E 135°18'0 0.0
2017-May-19 02:00N 34°42' E 135°18'0 0.0
2017-May-19 01:30N 34°42' E 135°18'0 0.0
2017-May-19 01:00N 34°42' E 135°18'0 0.0
2017-May-19 00:18N 34°42' E 135°18'0 0.0
2017-May-19 00:00N 34°42' E 135°18'0 0.0
2017-May-18 23:30N 34°42' E 135°18'0 0.0
2017-May-18 23:00N 34°42' E 135°18'1 1.3
2017-May-18 22:30N 34°42' E 135°18'4 7.2
2017-May-18 22:00N 34°38' E 135°18'3 3.7
2017-May-18 21:19N 34°37' E 135°15'0 0.3
2017-May-18 20:55N 34°37' E 135°15'0 0.0
2017-May-18 20:19N 34°37' E 135°15'0 0.0
2017-May-18 19:55N 34°37' E 135°15'0 0.0
2017-May-18 19:25N 34°37' E 135°15'0 0.0
2017-May-18 18:55N 34°37' E 135°15'0 0.0
2017-May-18 18:25N 34°37' E 135°15'0 0.0
2017-May-18 17:55N 34°37' E 135°15'0 0.0
2017-May-18 17:25N 34°37' E 135°15'0 0.0
2017-May-18 16:55N 34°37' E 135°15'0 0.0
2017-May-18 16:25N 34°37' E 135°15'0 0.0
2017-May-18 15:49N 34°37' E 135°15'0 0.1
2017-May-18 15:19N 34°37' E 135°15'0 0.0
2017-May-18 14:55N 34°37' E 135°15'0 0.1
2017-May-18 13:55N 34°37' E 135°15'0 0.0
2017-May-18 13:25N 34°37' E 135°15'0 0.1
2017-May-18 12:55N 34°37' E 135°15'0 0.1
2017-May-18 12:25N 34°37' E 135°15'0 0.0
2017-May-18 11:55N 34°37' E 135°15'0 0.0
2017-May-18 11:19N 34°37' E 135°15'0 0.0
2017-May-18 10:55N 34°37' E 135°15'0 0.0
2017-May-18 10:25N 34°37' E 135°15'0 0.0
2017-May-18 09:58N 34°37' E 135°15'0 0.0
2017-May-18 09:25N 34°37' E 135°15'0 0.0
2017-May-18 08:55N 34°37' E 135°15'0 0.0
2017-May-18 08:25N 34°37' E 135°15'0 0.0
2017-May-18 07:55N 34°37' E 135°15'0 0.0
2017-May-18 07:19N 34°37' E 135°15'0 0.0
2017-May-18 06:49N 34°37' E 135°15'0 0.0
2017-May-18 06:28N 34°37' E 135°15'0 0.0
2017-May-18 05:58N 34°37' E 135°15'0 0.0
2017-May-18 05:28N 34°37' E 135°15'0 0.0
2017-May-18 04:55N 34°37' E 135°15'0 0.0
2017-May-18 04:25N 34°37' E 135°15'0 0.0
2017-May-18 03:55N 34°37' E 135°15'0 0.1
2017-May-18 03:25N 34°37' E 135°15'0 0.0
2017-May-18 02:55N 34°37' E 135°15'0 0.0
2017-May-18 02:25N 34°37' E 135°15'0 0.0
2017-May-18 02:00N 34°37' E 135°15'0 0.0
2017-May-18 01:30N 34°37' E 135°15'0 0.0
2017-May-18 01:00N 34°37' E 135°15'0 0.0
2017-May-18 00:30N 34°37' E 135°15'0 0.2
2017-May-18 00:00N 34°37' E 135°15'0 0.1
2017-May-17 23:30N 34°37' E 135°15'  

Dump ship's entire track history